Time;durP1;ratioP1;P1;durP2;ratioP2;P2;SDS_P1;SDS_P2;PMS_P1;PMS_P2;Temp;Humidity;BMP_temperature;BMP_pressure;BME280_temperature;BME280_humidity;BME280_pressure;Samples;Min_cycle;Max_cycle;Signal;HPM_P1;HPM_P2
2022/05/28 00:00:14;;;;;;;5.72;3.58;;;;;;;;;;4486849;77;28461;-78
2022/05/28 00:06:22;;;;;;;6.70;3.42;;;;;;;;;;4475975;79;28485;-76
2022/05/28 00:12:24;;;;;;;7.30;3.45;;;;;;;;;;4484931;79;28481;-77
2022/05/28 00:18:25;;;;;;;5.78;3.25;;;;;;;;;;4534595;78;28549;-77
2022/05/28 00:24:27;;;;;;;7.85;2.98;;;;;;;;;;4479538;78;28459;-77
2022/05/28 00:30:34;;;;;;;6.25;3.50;;;;;;;;;;4484030;79;28850;-77
2022/05/28 00:36:41;;;;;;;5.70;3.27;;;;;;;;;;4523603;78;28498;-76
2022/05/28 00:42:42;;;;;;;5.47;3.33;;;;;;;;;;4512809;78;28600;-76
2022/05/28 00:48:50;;;;;;;5.12;3.33;;;;;;;;;;4505886;77;28494;-76
2022/05/28 00:54:56;;;;;;;5.03;2.87;;;;;;;;;;4542042;77;28502;-76
2022/05/28 01:00:58;;;;;;;7.10;3.10;;;;;;;;;;4521271;77;28473;-76
2022/05/28 01:21:10;;;;;;;4.97;3.62;;;;;;;;;;4522242;77;28526;-77
2022/05/28 01:27:19;;;;;;;6.85;3.60;;;;;;;;;;4505690;77;28491;-76
2022/05/28 01:33:21;;;;;;;5.37;3.12;;;;;;;;;;4495757;77;28565;-76
2022/05/28 01:39:29;;;;;;;6.62;3.30;;;;;;;;;;4520131;78;28552;-77
2022/05/28 01:45:36;;;;;;;4.92;2.90;;;;;;;;;;4510692;79;28539;-78
2022/05/28 01:51:45;;;;;;;;;;;;;;;;;;4523519;77;28485;-78
2022/05/28 01:57:42;;;;;;;6.40;3.20;;;;;;;;;;4517908;77;20249;-76
2022/05/28 02:03:45;;;;;;;5.12;3.47;;;;;;;;;;4514960;78;28536;-76
2022/05/28 02:09:51;;;;;;;5.72;3.45;;;;;;;;;;4556953;77;28456;-76
2022/05/28 02:15:53;;;;;;;7.93;3.50;;;;;;;;;;4528193;77;28443;-77
2022/05/28 02:21:59;;;;;;;5.55;3.40;;;;;;;;;;4531508;78;28631;-77
2022/05/28 02:28:01;;;;;;;6.40;3.47;;;;;;;;;;4486762;78;33621;-79
2022/05/28 02:34:02;;;;;;;6.92;3.77;;;;;;;;;;4395302;79;28503;-79
2022/05/28 02:40:04;;;;;;;7.70;3.80;;;;;;;;;;4506880;78;28545;-79
2022/05/28 02:46:10;;;;;;;5.65;3.50;;;;;;;;;;4474672;78;28476;-78
2022/05/28 02:52:11;;;;;;;4.72;3.35;;;;;;;;;;4462327;78;28574;-76
2022/05/28 02:58:19;;;;;;;6.90;3.05;;;;;;;;;;4466294;79;28457;-77
2022/05/28 03:04:20;;;;;;;4.97;3.20;;;;;;;;;;4459741;78;28509;-77
2022/05/28 03:10:21;;;;;;;6.58;3.87;;;;;;;;;;4412908;79;28507;-76
2022/05/28 03:16:28;;;;;;;7.03;3.58;;;;;;;;;;4446300;79;28462;-78
2022/05/28 03:22:29;;;;;;;7.78;3.45;;;;;;;;;;4423789;78;28493;-77
2022/05/28 03:28:30;;;;;;;7.97;4.20;;;;;;;;;;4387941;79;28498;-77
2022/05/28 03:34:31;;;;;;;6.47;3.72;;;;;;;;;;4316610;79;28528;-77
2022/05/28 03:40:39;;;;;;;6.83;3.62;;;;;;;;;;4437287;78;28485;-77
2022/05/28 03:46:48;;;;;;;7.30;4.30;;;;;;;;;;4375851;78;28538;-77
2022/05/28 03:52:48;;;;;;;7.30;4.50;;;;;;;;;;4374995;78;28508;-78
2022/05/28 03:58:50;;;;;;;9.60;3.85;;;;;;;;;;4300936;79;28618;-77
2022/05/28 04:04:51;;;;;;;6.08;3.70;;;;;;;;;;4359588;80;28490;-77
2022/05/28 04:10:58;;;;;;;8.48;4.00;;;;;;;;;;4355207;79;28463;-77
2022/05/28 04:16:58;;;;;;;6.25;4.05;;;;;;;;;;4365206;80;28546;-77
2022/05/28 04:22:59;;;;;;;7.25;3.80;;;;;;;;;;4344707;80;28558;-78
2022/05/28 04:29:00;;;;;;;7.33;4.05;;;;;;;;;;4520490;77;28539;-80
2022/05/28 04:35:07;;;;;;;9.05;4.25;;;;;;;;;;4525597;77;28470;-79
2022/05/28 04:41:08;;;;;;;7.55;4.08;;;;;;;;;;4519036;78;28464;-79
2022/05/28 04:47:13;;;;;;;7.78;4.10;;;;;;;;;;4539626;77;28464;-79
2022/05/28 04:53:14;;;;;;;7.67;4.47;;;;;;;;;;4547369;77;28475;-78
2022/05/28 04:59:21;;;;;;;5.28;3.58;;;;;;;;;;4540845;78;28512;-75
2022/05/28 05:05:22;;;;;;;5.35;3.92;;;;;;;;;;4461948;77;28510;-79
2022/05/28 05:11:23;;;;;;;8.85;4.12;;;;;;;;;;4350153;80;28479;-77
2022/05/28 05:17:24;;;;;;;6.35;4.47;;;;;;;;;;4361776;80;28513;-81
2022/05/28 05:23:32;;;;;;;8.53;4.50;;;;;;;;;;4375622;80;28496;-80
2022/05/28 05:29:33;;;;;;;8.38;4.15;;;;;;;;;;4352423;81;28529;-79
2022/05/28 05:35:34;;;;;;;6.60;3.90;;;;;;;;;;4370261;79;28886;-78
2022/05/28 05:41:39;;;;;;;7.22;4.30;;;;;;;;;;4443918;79;28549;-79
2022/05/28 05:47:46;;;;;;;6.22;4.03;;;;;;;;;;4455169;79;28524;-77
2022/05/28 05:53:47;;;;;;;8.50;2.90;;;;;;;;;;4450905;79;28455;-76
2022/05/28 05:59:48;;;;;;;5.15;2.30;;;;;;;;;;4408433;80;28446;-80
2022/05/28 06:05:49;;;;;;;8.93;2.90;;;;;;;;;;4433628;78;28533;-78
2022/05/28 06:11:50;;;;;;;6.28;2.52;;;;;;;;;;4467280;78;28505;-79
2022/05/28 06:17:51;;;;;;;5.95;2.33;;;;;;;;;;4481465;78;28511;-78
2022/05/28 06:23:52;;;;;;;5.58;2.20;;;;;;;;;;4520150;77;28496;-77
2022/05/28 06:29:53;;;;;;;9.18;2.20;;;;;;;;;;4493433;77;28530;-78
2022/05/28 06:36:00;;;;;;;7.65;2.05;;;;;;;;;;4441724;78;28491;-80
2022/05/28 06:42:06;;;;;;;8.28;2.33;;;;;;;;;;4449471;78;28479;-81
2022/05/28 06:48:16;;;;;;;;;;;;;;;;;;4488474;77;28564;-79
2022/05/28 06:54:18;;;;;;;6.17;2.20;;;;;;;;;;4463835;77;20293;-78
2022/05/28 07:00:19;;;;;;;4.55;1.80;;;;;;;;;;4482551;77;28822;-78
2022/05/28 07:06:20;;;;;;;5.92;1.90;;;;;;;;;;4500070;77;28542;-79
2022/05/28 07:12:23;;;;;;;10.05;2.52;;;;;;;;;;4485670;77;28566;-78
2022/05/28 07:18:24;;;;;;;6.12;2.17;;;;;;;;;;4490123;78;28498;-78
2022/05/28 07:24:33;;;;;;;8.23;2.60;;;;;;;;;;4475217;77;28534;-78
2022/05/28 07:30:35;;;;;;;7.37;1.50;;;;;;;;;;4479645;77;28476;-79
2022/05/28 07:36:45;;;;;;;5.78;1.55;;;;;;;;;;4493485;77;28551;-77
2022/05/28 07:43:04;;;;;;;4.33;1.25;;;;;;;;;;4503921;77;28555;-81
2022/05/28 07:49:11;;;;;;;6.35;1.60;;;;;;;;;;4494966;77;28524;-82
2022/05/28 07:55:22;;;;;;;5.67;1.50;;;;;;;;;;4500779;78;28565;-85
2022/05/28 08:01:21;;;;;;;7.33;1.50;;;;;;;;;;4489787;77;28540;-81
2022/05/28 08:07:28;;;;;;;5.60;1.30;;;;;;;;;;4454129;78;28494;-82
2022/05/28 08:13:29;;;;;;;4.45;1.10;;;;;;;;;;4456279;78;28506;-80
2022/05/28 08:19:31;;;;;;;5.67;1.10;;;;;;;;;;4481430;78;28560;-80
2022/05/28 08:25:39;;;;;;;2.87;0.82;;;;;;;;;;4415108;79;28466;-78
2022/05/28 08:31:39;;;;;;;3.42;0.90;;;;;;;;;;4383591;79;28532;-80
2022/05/28 08:37:40;;;;;;;2.65;0.55;;;;;;;;;;4371410;79;28567;-77
2022/05/28 08:43:49;;;;;;;2.37;0.70;;;;;;;;;;4382390;79;28528;-73
2022/05/28 08:49:50;;;;;;;1.65;0.70;;;;;;;;;;4379153;79;28612;-77
2022/05/28 08:55:59;;;;;;;2.95;0.78;;;;;;;;;;4367489;79;28514;-76
2022/05/28 09:02:00;;;;;;;2.50;0.60;;;;;;;;;;4391633;79;28555;-77
2022/05/28 09:08:02;;;;;;;2.98;0.82;;;;;;;;;;4406084;79;28537;-77
2022/05/28 09:14:08;;;;;;;3.72;0.80;;;;;;;;;;4400235;79;28511;-77
2022/05/28 09:20:11;;;;;;;2.65;1.00;;;;;;;;;;4390953;79;28531;-80
2022/05/28 09:26:18;;;;;;;4.03;1.07;;;;;;;;;;4391289;79;28520;-76
2022/05/28 09:32:18;;;;;;;;;;;;;;;;;;4410921;79;28512;-76
2022/05/28 09:38:38;;;;;;;2.52;0.70;;;;;;;;;;4402968;79;20261;-77
2022/05/28 09:44:44;;;;;;;4.33;1.00;;;;;;;;;;4473646;77;28533;-77
2022/05/28 09:50:51;;;;;;;2.87;0.90;;;;;;;;;;4477346;77;28526;-75
2022/05/28 09:56:56;;;;;;;3.55;0.95;;;;;;;;;;4482376;77;28505;-77
2022/05/28 10:09:26;;;;;;;5.20;1.10;;;;;;;;;;4408030;79;28502;-77
2022/05/28 10:15:27;;;;;;;;;;;;;;;;;;4410901;79;28521;-76
2022/05/28 10:21:35;;;;;;;6.03;0.95;;;;;;;;;;4487652;77;20222;-76
2022/05/28 10:27:38;;;;;;;4.42;0.90;;;;;;;;;;4486939;77;28547;-77
2022/05/28 10:33:40;;;;;;;2.98;0.80;;;;;;;;;;4475580;78;28553;-76
2022/05/28 10:39:42;;;;;;;3.05;1.17;;;;;;;;;;4487006;78;28641;-74
2022/05/28 10:45:45;;;;;;;2.50;0.82;;;;;;;;;;4418199;79;28489;-76
2022/05/28 10:51:57;;;;;;;3.52;0.88;;;;;;;;;;4471309;78;28530;-75
2022/05/28 10:58:15;;;;;;;3.27;0.75;;;;;;;;;;4349810;79;28482;-77
2022/05/28 11:04:30;;;;;;;2.85;0.57;;;;;;;;;;4476878;78;28511;-79
2022/05/28 11:10:36;;;;;;;3.62;0.85;;;;;;;;;;4503116;78;28491;-79
2022/05/28 11:16:55;;;;;;;1.17;0.65;;;;;;;;;;4513817;78;28514;-77
2022/05/28 11:23:04;;;;;;;1.22;0.55;;;;;;;;;;4514546;77;28542;-80
2022/05/28 11:29:07;;;;;;;5.25;0.88;;;;;;;;;;4500953;77;28535;-80
2022/05/28 11:35:10;;;;;;;1.12;0.70;;;;;;;;;;4509952;77;28511;-76
2022/05/28 11:41:16;;;;;;;2.77;0.55;;;;;;;;;;4509584;77;28555;-79
2022/05/28 11:47:31;;;;;;;1.02;0.40;;;;;;;;;;4492028;77;28541;-79
2022/05/28 11:53:47;;;;;;;0.72;0.40;;;;;;;;;;4526273;77;28536;-78
2022/05/28 11:59:49;;;;;;;2.87;0.42;;;;;;;;;;4510135;77;28587;-78
2022/05/28 12:05:52;;;;;;;0.70;0.37;;;;;;;;;;4492883;78;28588;-79
2022/05/28 12:12:01;;;;;;;1.65;0.50;;;;;;;;;;4482198;78;28528;-79
2022/05/28 12:18:07;;;;;;;6.03;0.95;;;;;;;;;;4478506;78;28577;-79
2022/05/28 12:24:13;;;;;;;2.60;0.60;;;;;;;;;;4462262;78;28513;-83
2022/05/28 12:30:25;;;;;;;4.00;0.70;;;;;;;;;;4456681;78;28545;-80
2022/05/28 12:36:28;;;;;;;2.27;0.50;;;;;;;;;;4380739;79;28504;-79
2022/05/28 12:42:34;;;;;;;2.15;0.50;;;;;;;;;;4412792;79;28529;-79
2022/05/28 12:48:40;;;;;;;2.83;0.90;;;;;;;;;;4453714;79;28527;-80
2022/05/28 12:54:48;;;;;;;0.90;0.60;;;;;;;;;;4413483;79;28468;-78
2022/05/28 13:00:54;;;;;;;1.85;0.50;;;;;;;;;;4353347;80;28500;-79
2022/05/28 13:06:57;;;;;;;1.35;0.30;;;;;;;;;;4417881;79;28525;-78
2022/05/28 13:13:13;;;;;;;1.02;0.30;;;;;;;;;;4407133;79;28536;-79
2022/05/28 13:19:32;;;;;;;1.20;0.50;;;;;;;;;;4442583;79;28469;-77
2022/05/28 13:25:38;;;;;;;1.20;0.40;;;;;;;;;;4489196;79;28535;-76
2022/05/28 13:31:45;;;;;;;2.35;1.07;;;;;;;;;;4414786;79;28569;-73
2022/05/28 13:37:54;;;;;;;1.92;0.80;;;;;;;;;;4434523;79;28543;-74
2022/05/28 13:44:04;;;;;;;1.40;0.50;;;;;;;;;;4450802;79;28525;-75
2022/05/28 13:50:08;;;;;;;1.95;0.42;;;;;;;;;;4426088;79;28545;-76
2022/05/28 13:56:10;;;;;;;2.47;0.50;;;;;;;;;;4436865;79;28496;-74
2022/05/28 14:02:19;;;;;;;2.90;0.40;;;;;;;;;;4418259;79;28462;-79
2022/05/28 14:08:28;;;;;;;0.98;0.50;;;;;;;;;;4418382;79;28564;-76
2022/05/28 14:14:40;;;;;;;1.10;0.40;;;;;;;;;;4396412;79;28568;-73
2022/05/28 14:20:40;;;;;;;2.15;0.45;;;;;;;;;;4430199;79;28527;-76
2022/05/28 14:26:41;;;;;;;1.02;0.30;;;;;;;;;;4431019;79;28520;-77
2022/05/28 14:32:44;;;;;;;2.75;0.33;;;;;;;;;;4419526;79;28583;-79
2022/05/28 14:38:53;;;;;;;1.75;0.50;;;;;;;;;;4457486;79;28547;-78
2022/05/28 14:44:59;;;;;;;2.85;0.70;;;;;;;;;;4410325;79;28543;-75
2022/05/28 14:51:05;;;;;;;1.32;0.60;;;;;;;;;;4436645;79;28505;-77
2022/05/28 14:57:12;;;;;;;4.30;0.60;;;;;;;;;;4412755;79;28458;-78
2022/05/28 15:03:14;;;;;;;0.98;0.40;;;;;;;;;;4415571;79;28484;-81
2022/05/28 15:09:24;;;;;;;1.32;0.62;;;;;;;;;;4418094;79;28583;-79
2022/05/28 15:15:25;;;;;;;0.98;0.60;;;;;;;;;;4428888;79;28487;-77
2022/05/28 15:21:26;;;;;;;1.77;0.40;;;;;;;;;;4433883;79;28570;-79
2022/05/28 15:27:33;;;;;;;0.93;0.50;;;;;;;;;;4429483;79;28531;-79
2022/05/28 15:33:34;;;;;;;1.45;0.60;;;;;;;;;;4422452;79;28505;-77
2022/05/28 15:39:41;;;;;;;0.70;0.50;;;;;;;;;;4459649;79;28521;-78
2022/05/28 15:45:47;;;;;;;2.77;0.65;;;;;;;;;;4410960;79;28495;-77
2022/05/28 15:51:48;;;;;;;1.95;1.20;;;;;;;;;;4415887;79;28934;-76
2022/05/28 15:57:50;;;;;;;3.50;0.93;;;;;;;;;;4424611;79;28535;-75
2022/05/28 16:03:53;;;;;;;4.03;1.37;;;;;;;;;;4420161;79;28476;-76
2022/05/28 16:09:54;;;;;;;4.42;1.10;;;;;;;;;;4398569;78;28476;-74
2022/05/28 16:16:02;;;;;;;3.27;1.67;;;;;;;;;;4465859;78;28497;-77
2022/05/28 16:22:09;;;;;;;2.40;1.10;;;;;;;;;;4411435;78;28565;-78
2022/05/28 16:28:16;;;;;;;2.42;1.15;;;;;;;;;;4428361;78;28528;-78
2022/05/28 16:34:17;;;;;;;;;;;;;;;;;;4448763;78;28621;-77
2022/05/28 16:40:23;;;;;;;1.45;0.65;;;;;;;;;;4422034;78;20235;-78
2022/05/28 16:46:30;;;;;;;2.47;1.10;;;;;;;;;;4454702;78;28529;-78
2022/05/28 16:52:38;;;;;;;3.75;1.17;;;;;;;;;;4412130;78;28443;-75
2022/05/28 16:58:45;;;;;;;1.47;0.78;;;;;;;;;;4417712;78;28497;-75
2022/05/28 17:04:46;;;;;;;3.70;0.75;;;;;;;;;;4434572;78;28515;-77
2022/05/28 17:10:55;;;;;;;2.10;0.80;;;;;;;;;;4396592;78;28517;-78
2022/05/28 17:16:56;;;;;;;5.65;1.00;;;;;;;;;;4434568;78;28463;-78
2022/05/28 17:23:04;;;;;;;3.50;1.12;;;;;;;;;;4423465;78;28551;-76
2022/05/28 17:29:05;;;;;;;3.98;0.80;;;;;;;;;;4423980;79;28513;-74
2022/05/28 17:35:06;;;;;;;2.35;0.80;;;;;;;;;;4420610;78;28500;-75
2022/05/28 17:41:09;;;;;;;5.30;1.02;;;;;;;;;;4420477;78;29010;-77
2022/05/28 17:47:11;;;;;;;1.87;0.80;;;;;;;;;;4394585;78;28571;-75
2022/05/28 17:53:20;;;;;;;1.27;0.72;;;;;;;;;;4419429;78;28533;-77
2022/05/28 17:59:21;;;;;;;2.70;0.93;;;;;;;;;;4467588;78;28489;-74
2022/05/28 18:05:22;;;;;;;2.40;1.12;;;;;;;;;;4427292;78;28507;-77
2022/05/28 18:11:23;;;;;;;2.15;0.88;;;;;;;;;;4417562;78;28496;-78
2022/05/28 18:17:43;;;;;;;1.75;0.90;;;;;;;;;;4419001;79;28503;-78
2022/05/28 18:23:46;;;;;;;4.30;1.50;;;;;;;;;;4417859;78;28527;-78
2022/05/28 18:29:46;;;;;;;7.97;1.55;;;;;;;;;;4441355;79;28493;-77
2022/05/28 18:35:49;;;;;;;1.70;0.93;;;;;;;;;;4427223;78;28540;-78
2022/05/28 18:41:49;;;;;;;4.03;0.98;;;;;;;;;;4428375;78;28540;-77
2022/05/28 18:47:50;;;;;;;1.98;1.15;;;;;;;;;;4429965;78;28553;-77
2022/05/28 18:54:04;;;;;;;2.12;1.20;;;;;;;;;;4428929;78;28513;-77
2022/05/28 19:00:06;;;;;;;2.08;1.17;;;;;;;;;;4418378;78;28532;-78
2022/05/28 19:06:07;;;;;;;2.08;1.22;;;;;;;;;;4421224;79;28848;-81
2022/05/28 19:12:12;;;;;;;3.08;1.12;;;;;;;;;;4418890;79;28474;-85
2022/05/28 19:18:16;;;;;;;2.37;1.10;;;;;;;;;;4416314;79;37408;-83
2022/05/28 19:24:17;;;;;;;6.67;1.27;;;;;;;;;;4417698;79;28506;-76
2022/05/28 19:30:22;;;;;;;3.85;1.50;;;;;;;;;;4437786;79;28535;-79
2022/05/28 19:36:22;;;;;;;2.50;1.40;;;;;;;;;;4428723;79;28492;-80
2022/05/28 19:42:28;;;;;;;3.70;1.30;;;;;;;;;;4417993;79;28517;-76
2022/05/28 19:48:31;;;;;;;5.00;1.60;;;;;;;;;;4439128;79;28517;-79
2022/05/28 19:54:32;;;;;;;2.72;1.50;;;;;;;;;;4425522;80;28537;-78
2022/05/28 20:00:33;;;;;;;6.42;1.60;;;;;;;;;;4420400;79;28493;-79
2022/05/28 20:06:34;;;;;;;5.70;2.00;;;;;;;;;;4433877;78;28540;-78
2022/05/28 20:12:37;;;;;;;6.30;2.77;;;;;;;;;;4478850;78;28510;-78
2022/05/28 20:18:37;;;;;;;7.05;2.67;;;;;;;;;;4485918;78;28465;-78
2022/05/28 20:24:39;;;;;;;6.47;2.35;;;;;;;;;;4469432;78;28562;-78
2022/05/28 20:30:40;;;;;;;5.78;2.55;;;;;;;;;;4464376;78;28481;-78
2022/05/28 20:36:41;;;;;;;6.97;2.45;;;;;;;;;;4483140;78;28493;-78
2022/05/28 20:42:44;;;;;;;4.67;2.37;;;;;;;;;;4468333;78;28535;-77
2022/05/28 20:48:47;;;;;;;5.70;2.65;;;;;;;;;;4465110;78;28560;-77
2022/05/28 20:54:48;;;;;;;6.87;3.12;;;;;;;;;;4503021;78;28547;-77
2022/05/28 21:00:50;;;;;;;9.33;3.50;;;;;;;;;;4456822;78;28457;-77
2022/05/28 21:06:51;;;;;;;6.92;3.30;;;;;;;;;;4511564;78;28530;-77
2022/05/28 21:12:52;;;;;;;5.45;2.83;;;;;;;;;;4454379;79;28461;-77
2022/05/28 21:18:55;;;;;;;5.20;2.20;;;;;;;;;;4487585;78;28555;-76
2022/05/28 21:24:56;;;;;;;8.05;2.65;;;;;;;;;;4420186;78;28486;-77
2022/05/28 21:30:58;;;;;;;5.70;2.67;;;;;;;;;;4419489;78;28545;-77
2022/05/28 21:36:59;;;;;;;5.35;2.70;;;;;;;;;;4475941;78;28505;-77
2022/05/28 21:43:01;;;;;;;4.35;2.30;;;;;;;;;;4451496;78;28542;-76
2022/05/28 21:49:02;;;;;;;4.00;2.42;;;;;;;;;;4476622;78;28505;-77
2022/05/28 21:55:05;;;;;;;5.78;2.30;;;;;;;;;;4493515;78;28538;-77
2022/05/28 22:01:07;;;;;;;4.70;2.20;;;;;;;;;;4435705;78;28479;-78
2022/05/28 22:07:10;;;;;;;8.18;2.92;;;;;;;;;;4451875;78;28476;-77
2022/05/28 22:13:11;;;;;;;5.30;2.77;;;;;;;;;;4425348;78;28564;-78
2022/05/28 22:19:13;;;;;;;6.60;3.62;;;;;;;;;;4429276;78;28515;-76
2022/05/28 22:25:14;;;;;;;6.37;3.10;;;;;;;;;;4426119;78;28505;-76
2022/05/28 22:31:19;;;;;;;5.45;2.37;;;;;;;;;;4433499;78;28560;-75
2022/05/28 22:37:20;;;;;;;6.62;3.00;;;;;;;;;;4443697;78;28537;-76
2022/05/28 22:43:24;;;;;;;8.45;2.95;;;;;;;;;;4420142;78;28482;-76
2022/05/28 22:49:24;;;;;;;7.50;2.90;;;;;;;;;;4430846;78;28501;-77
2022/05/28 22:55:25;;;;;;;6.90;2.85;;;;;;;;;;4388223;78;28534;-78
2022/05/28 23:01:27;;;;;;;8.35;2.83;;;;;;;;;;4394213;78;28496;-77
2022/05/28 23:07:28;;;;;;;5.42;2.77;;;;;;;;;;4432714;78;28540;-78
2022/05/28 23:13:29;;;;;;;7.58;3.33;;;;;;;;;;4413025;78;28535;-78
2022/05/28 23:19:30;;;;;;;6.47;3.20;;;;;;;;;;4418030;78;28535;-78
2022/05/28 23:25:49;;;;;;;5.20;2.55;;;;;;;;;;4428539;78;28561;-79
2022/05/28 23:31:51;;;;;;;7.95;2.67;;;;;;;;;;4420124;78;28539;-80
2022/05/28 23:37:53;;;;;;;6.55;2.65;;;;;;;;;;4434148;78;28534;-78
2022/05/28 23:43:54;;;;;;;6.97;2.72;;;;;;;;;;4433217;79;28548;-79
2022/05/28 23:49:56;;;;;;;5.20;2.67;;;;;;;;;;4386057;78;28519;-80
2022/05/28 23:55:57;;;;;;;7.92;3.40;;;;;;;;;;4361411;78;28610;-78
